sensor_id;sensor_type;location;lat;lon;timestamp;pressure;altitude;pressure_sealevel;temperature;humidity
82657;BME280;72357;52.110;5.252;2023-08-30T00:00:40;100873.0;;;17.02;62.54
82657;BME280;72357;52.110;5.252;2023-08-30T00:02:17;100871.0;;;16.97;62.7
82657;BME280;72357;52.110;5.252;2023-08-30T00:03:53;100867.0;;;17.07;62.4
82657;BME280;72357;52.110;5.252;2023-08-30T00:07:06;100865.0;;;17.2;62.15
82657;BME280;72357;52.110;5.252;2023-08-30T00:08:42;100859.0;;;17.28;61.48
82657;BME280;72357;52.110;5.252;2023-08-30T00:10:18;100860.0;;;17.2;61.61
82657;BME280;72357;52.110;5.252;2023-08-30T00:13:31;100858.0;;;17.11;61.83
82657;BME280;72357;52.110;5.252;2023-08-30T00:15:08;100852.0;;;17.06;62.18
82657;BME280;72357;52.110;5.252;2023-08-30T00:16:44;100853.0;;;17.07;62.31
82657;BME280;72357;52.110;5.252;2023-08-30T00:18:21;100848.0;;;17.14;61.84
82657;BME280;72357;52.110;5.252;2023-08-30T00:21:34;100844.0;;;17.06;62.29
82657;BME280;72357;52.110;5.252;2023-08-30T00:23:10;100836.0;;;17.06;62.33
82657;BME280;72357;52.110;5.252;2023-08-30T00:24:46;100834.0;;;17.04;62.28
82657;BME280;72357;52.110;5.252;2023-08-30T00:27:58;100836.0;;;17.2;61.95
82657;BME280;72357;52.110;5.252;2023-08-30T00:29:34;100835.0;;;17.09;62.1
82657;BME280;72357;52.110;5.252;2023-08-30T00:31:10;100834.0;;;17.16;61.99
82657;BME280;72357;52.110;5.252;2023-08-30T00:34:23;100838.0;;;17.14;62.08
82657;BME280;72357;52.110;5.252;2023-08-30T00:35:59;100837.0;;;17.16;62.27
82657;BME280;72357;52.110;5.252;2023-08-30T00:37:36;100833.0;;;17.27;61.77
82657;BME280;72357;52.110;5.252;2023-08-30T00:40:48;100832.0;;;17.43;61.45
82657;BME280;72357;52.110;5.252;2023-08-30T00:42:24;100830.0;;;17.43;61.41
82657;BME280;72357;52.110;5.252;2023-08-30T00:44:00;100828.0;;;17.41;61.41
82657;BME280;72357;52.110;5.252;2023-08-30T00:45:38;100827.0;;;17.29;61.8
82657;BME280;72357;52.110;5.252;2023-08-30T00:48:52;100827.0;;;17.34;61.71
82657;BME280;72357;52.110;5.252;2023-08-30T00:50:29;100824.0;;;17.27;62.02
82657;BME280;72357;52.110;5.252;2023-08-30T00:52:07;100823.0;;;17.43;61.52
82657;BME280;72357;52.110;5.252;2023-08-30T00:55:22;100823.0;;;17.48;61.37
82657;BME280;72357;52.110;5.252;2023-08-30T00:57:00;100822.0;;;17.53;61.21
82657;BME280;72357;52.110;5.252;2023-08-30T00:58:37;100821.0;;;17.5;61.35
82657;BME280;72357;52.110;5.252;2023-08-30T01:00:14;100818.0;;;17.56;61.07
82657;BME280;72357;52.110;5.252;2023-08-30T01:03:27;100820.0;;;17.59;60.85
82657;BME280;72357;52.110;5.252;2023-08-30T01:05:03;100814.0;;;17.61;60.77
82657;BME280;72357;52.110;5.252;2023-08-30T01:06:39;100814.0;;;17.59;60.77
82657;BME280;72357;52.110;5.252;2023-08-30T01:09:51;100812.0;;;17.61;60.71
82657;BME280;72357;52.110;5.252;2023-08-30T01:11:34;100812.0;;;17.57;61.02
82657;BME280;72357;52.110;5.252;2023-08-30T01:13:16;100810.0;;;17.68;60.38
82657;BME280;72357;52.110;5.252;2023-08-30T01:14:59;100810.0;;;17.68;60.35
82657;BME280;72357;52.110;5.252;2023-08-30T01:18:17;100812.0;;;17.63;60.28
82657;BME280;72357;52.110;5.252;2023-08-30T01:19:58;100813.0;;;17.52;60.54
82657;BME280;72357;52.110;5.252;2023-08-30T01:21:47;100812.0;;;17.59;60.95
82657;BME280;72357;52.110;5.252;2023-08-30T01:23:36;100812.0;;;17.64;60.77
82657;BME280;72357;52.110;5.252;2023-08-30T01:25:23;100810.0;;;17.8;60.18
82657;BME280;72357;52.110;5.252;2023-08-30T01:28:52;100811.0;;;17.72;60.2
82657;BME280;72357;52.110;5.252;2023-08-30T01:30:31;100809.0;;;17.7;60.16
82657;BME280;72357;52.110;5.252;2023-08-30T01:32:08;100812.0;;;17.59;60.45
82657;BME280;72357;52.110;5.252;2023-08-30T01:33:45;100813.0;;;17.68;60.49
82657;BME280;72357;52.110;5.252;2023-08-30T01:37:01;100811.0;;;17.68;60.45
82657;BME280;72357;52.110;5.252;2023-08-30T01:38:40;100809.0;;;17.77;60.1
82657;BME280;72357;52.110;5.252;2023-08-30T01:40:17;100809.0;;;17.8;60.04
82657;BME280;72357;52.110;5.252;2023-08-30T01:43:32;100805.0;;;17.84;60.14
82657;BME280;72357;52.110;5.252;2023-08-30T01:45:10;100791.0;;;17.98;59.83
82657;BME280;72357;52.110;5.252;2023-08-30T01:46:47;100792.0;;;17.95;59.66
82657;BME280;72357;52.110;5.252;2023-08-30T01:48:25;100791.0;;;17.91;59.83
82657;BME280;72357;52.110;5.252;2023-08-30T01:51:41;100792.0;;;17.89;59.69
82657;BME280;72357;52.110;5.252;2023-08-30T01:53:17;100789.0;;;17.88;59.6
82657;BME280;72357;52.110;5.252;2023-08-30T01:54:53;100792.0;;;17.86;59.87
82657;BME280;72357;52.110;5.252;2023-08-30T01:58:06;100785.0;;;17.87;59.87
82657;BME280;72357;52.110;5.252;2023-08-30T01:59:43;100787.0;;;17.84;59.99
82657;BME280;72357;52.110;5.252;2023-08-30T02:02:56;100781.0;;;17.86;59.81
82657;BME280;72357;52.110;5.252;2023-08-30T02:06:11;100780.0;;;17.87;60.2
82657;BME280;72357;52.110;5.252;2023-08-30T02:07:55;100783.0;;;17.81;59.99
82657;BME280;72357;52.110;5.252;2023-08-30T02:09:39;100780.0;;;17.86;59.96
82657;BME280;72357;52.110;5.252;2023-08-30T02:11:26;100783.0;;;17.86;59.67
82657;BME280;72357;52.110;5.252;2023-08-30T02:14:43;100782.0;;;17.88;59.65
82657;BME280;72357;52.110;5.252;2023-08-30T02:16:23;100782.0;;;17.81;59.6
82657;BME280;72357;52.110;5.252;2023-08-30T02:18:04;100780.0;;;17.79;59.64
82657;BME280;72357;52.110;5.252;2023-08-30T02:19:42;100780.0;;;17.88;59.56
82657;BME280;72357;52.110;5.252;2023-08-30T02:22:58;100773.0;;;17.87;59.44
82657;BME280;72357;52.110;5.252;2023-08-30T02:24:34;100772.0;;;17.86;59.39
82657;BME280;72357;52.110;5.252;2023-08-30T02:26:11;100772.0;;;17.98;59.18
82657;BME280;72357;52.110;5.252;2023-08-30T02:29:23;100774.0;;;18.05;59.08
82657;BME280;72357;52.110;5.252;2023-08-30T02:30:59;100771.0;;;18.03;58.99
82657;BME280;72357;52.110;5.252;2023-08-30T02:32:35;100771.0;;;18.09;58.86
82657;BME280;72357;52.110;5.252;2023-08-30T02:35:47;100764.0;;;18.09;58.96
82657;BME280;72357;52.110;5.252;2023-08-30T02:37:23;100762.0;;;18.05;58.94
82657;BME280;72357;52.110;5.252;2023-08-30T02:38:59;100761.0;;;18.0;59.23
82657;BME280;72357;52.110;5.252;2023-08-30T02:40:36;100759.0;;;18.03;58.95
82657;BME280;72357;52.110;5.252;2023-08-30T02:43:48;100758.0;;;18.07;59.13
82657;BME280;72357;52.110;5.252;2023-08-30T02:45:24;100757.0;;;17.97;58.87
82657;BME280;72357;52.110;5.252;2023-08-30T02:47:00;100758.0;;;18.0;58.95
82657;BME280;72357;52.110;5.252;2023-08-30T02:50:13;100750.0;;;17.96;59.59
82657;BME280;72357;52.110;5.252;2023-08-30T02:51:48;100746.0;;;17.84;59.26
82657;BME280;72357;52.110;5.252;2023-08-30T02:53:25;100746.0;;;17.86;59.34
82657;BME280;72357;52.110;5.252;2023-08-30T02:56:37;100740.0;;;17.95;59.02
82657;BME280;72357;52.110;5.252;2023-08-30T02:58:14;100739.0;;;17.95;58.93
82657;BME280;72357;52.110;5.252;2023-08-30T02:59:50;100737.0;;;17.98;58.9
82657;BME280;72357;52.110;5.252;2023-08-30T03:03:03;100734.0;;;17.84;59.23
82657;BME280;72357;52.110;5.252;2023-08-30T03:04:39;100730.0;;;17.72;59.32
82657;BME280;72357;52.110;5.252;2023-08-30T03:06:15;100726.0;;;17.68;59.47
82657;BME280;72357;52.110;5.252;2023-08-30T03:07:52;100723.0;;;17.55;59.85
82657;BME280;72357;52.110;5.252;2023-08-30T03:11:09;100719.0;;;17.52;60.0
82657;BME280;72357;52.110;5.252;2023-08-30T03:12:45;100715.0;;;17.52;59.98
82657;BME280;72357;52.110;5.252;2023-08-30T03:14:21;100715.0;;;17.54;59.66
82657;BME280;72357;52.110;5.252;2023-08-30T03:17:33;100712.0;;;17.5;59.66
82657;BME280;72357;52.110;5.252;2023-08-30T03:19:10;100706.0;;;17.48;59.58
82657;BME280;72357;52.110;5.252;2023-08-30T03:20:46;100707.0;;;17.52;59.42
82657;BME280;72357;52.110;5.252;2023-08-30T03:23:59;100701.0;;;17.36;59.98
82657;BME280;72357;52.110;5.252;2023-08-30T03:25:35;100701.0;;;17.41;60.25
82657;BME280;72357;52.110;5.252;2023-08-30T03:27:11;100702.0;;;17.45;59.93
82657;BME280;72357;52.110;5.252;2023-08-30T03:28:47;100703.0;;;17.38;60.08
82657;BME280;72357;52.110;5.252;2023-08-30T03:31:59;100706.0;;;17.32;60.22
82657;BME280;72357;52.110;5.252;2023-08-30T03:33:35;100698.0;;;17.3;60.15
82657;BME280;72357;52.110;5.252;2023-08-30T03:35:12;100698.0;;;17.2;60.35
82657;BME280;72357;52.110;5.252;2023-08-30T03:38:24;100694.0;;;17.11;60.62
82657;BME280;72357;52.110;5.252;2023-08-30T03:41:36;100692.0;;;17.09;60.51
82657;BME280;72357;52.110;5.252;2023-08-30T03:44:48;100691.0;;;17.11;60.33
82657;BME280;72357;52.110;5.252;2023-08-30T03:46:24;100684.0;;;17.0;60.56
82657;BME280;72357;52.110;5.252;2023-08-30T03:48:00;100680.0;;;16.98;60.36
82657;BME280;72357;52.110;5.252;2023-08-30T03:49:37;100675.0;;;16.97;60.38
82657;BME280;72357;52.110;5.252;2023-08-30T03:52:49;100672.0;;;16.93;60.53
82657;BME280;72357;52.110;5.252;2023-08-30T03:54:25;100669.0;;;16.95;60.55
82657;BME280;72357;52.110;5.252;2023-08-30T03:56:01;100664.0;;;16.96;60.29
82657;BME280;72357;52.110;5.252;2023-08-30T03:59:14;100662.0;;;16.95;60.44
82657;BME280;72357;52.110;5.252;2023-08-30T04:00:49;100668.0;;;17.02;60.28
82657;BME280;72357;52.110;5.252;2023-08-30T04:02:26;100666.0;;;16.95;60.47
82657;BME280;72357;52.110;5.252;2023-08-30T04:05:38;100664.0;;;16.93;60.34
82657;BME280;72357;52.110;5.252;2023-08-30T04:07:14;100663.0;;;16.91;60.17
82657;BME280;72357;52.110;5.252;2023-08-30T04:08:50;100661.0;;;16.95;60.14
82657;BME280;72357;52.110;5.252;2023-08-30T04:12:03;100662.0;;;16.77;60.84
82657;BME280;72357;52.110;5.252;2023-08-30T04:13:39;100656.0;;;16.75;60.84
82657;BME280;72357;52.110;5.252;2023-08-30T04:15:15;100656.0;;;16.63;60.86
82657;BME280;72357;52.110;5.252;2023-08-30T04:16:52;100660.0;;;16.63;61.14
82657;BME280;72357;52.110;5.252;2023-08-30T04:20:06;100656.0;;;16.73;60.67
82657;BME280;72357;52.110;5.252;2023-08-30T04:21:43;100657.0;;;16.64;60.77
82657;BME280;72357;52.110;5.252;2023-08-30T04:23:19;100658.0;;;16.59;61.23
82657;BME280;72357;52.110;5.252;2023-08-30T04:26:31;100655.0;;;16.5;61.44
82657;BME280;72357;52.110;5.252;2023-08-30T04:28:08;100659.0;;;16.45;61.68
82657;BME280;72357;52.110;5.252;2023-08-30T04:29:43;100658.0;;;16.53;61.32
82657;BME280;72357;52.110;5.252;2023-08-30T04:32:56;100653.0;;;16.46;61.36
82657;BME280;72357;52.110;5.252;2023-08-30T04:34:32;100653.0;;;16.43;61.43
82657;BME280;72357;52.110;5.252;2023-08-30T04:36:08;100657.0;;;16.39;61.63
82657;BME280;72357;52.110;5.252;2023-08-30T04:37:44;100651.0;;;16.34;61.85
82657;BME280;72357;52.110;5.252;2023-08-30T04:40:57;100648.0;;;16.48;61.29
82657;BME280;72357;52.110;5.252;2023-08-30T04:42:33;100643.0;;;16.39;61.58
82657;BME280;72357;52.110;5.252;2023-08-30T04:44:09;100640.0;;;16.39;61.32
82657;BME280;72357;52.110;5.252;2023-08-30T04:47:24;100640.0;;;16.59;60.7
82657;BME280;72357;52.110;5.252;2023-08-30T04:49:00;100639.0;;;16.57;60.59
82657;BME280;72357;52.110;5.252;2023-08-30T04:50:36;100636.0;;;16.38;61.1
82657;BME280;72357;52.110;5.252;2023-08-30T04:53:48;100630.0;;;16.21;61.67
82657;BME280;72357;52.110;5.252;2023-08-30T04:55:24;100630.0;;;16.2;61.75
82657;BME280;72357;52.110;5.252;2023-08-30T04:57:00;100633.0;;;16.07;62.22
82657;BME280;72357;52.110;5.252;2023-08-30T05:00:14;100640.0;;;16.11;61.85
82657;BME280;72357;52.110;5.252;2023-08-30T05:01:50;100637.0;;;16.18;61.59
82657;BME280;72357;52.110;5.252;2023-08-30T05:03:26;100633.0;;;16.14;61.7
82657;BME280;72357;52.110;5.252;2023-08-30T05:05:02;100626.0;;;16.09;61.93
82657;BME280;72357;52.110;5.252;2023-08-30T05:08:14;100617.0;;;16.15;61.68
82657;BME280;72357;52.110;5.252;2023-08-30T05:09:50;100612.0;;;16.12;61.64
82657;BME280;72357;52.110;5.252;2023-08-30T05:11:26;100608.0;;;16.21;61.5
82657;BME280;72357;52.110;5.252;2023-08-30T05:14:38;100608.0;;;16.32;60.87
82657;BME280;72357;52.110;5.252;2023-08-30T05:16:15;100608.0;;;16.41;60.73
82657;BME280;72357;52.110;5.252;2023-08-30T05:17:51;100605.0;;;16.32;61.07
82657;BME280;72357;52.110;5.252;2023-08-30T05:21:04;100606.0;;;16.27;61.37
82657;BME280;72357;52.110;5.252;2023-08-30T05:22:40;100606.0;;;16.27;61.45
82657;BME280;72357;52.110;5.252;2023-08-30T05:24:16;100602.0;;;16.29;61.84
82657;BME280;72357;52.110;5.252;2023-08-30T05:25:52;100606.0;;;16.52;61.37
82657;BME280;72357;52.110;5.252;2023-08-30T05:29:04;100611.0;;;16.43;61.62
82657;BME280;72357;52.110;5.252;2023-08-30T05:30:41;100609.0;;;16.46;61.63
82657;BME280;72357;52.110;5.252;2023-08-30T05:32:19;100606.0;;;16.61;61.35
82657;BME280;72357;52.110;5.252;2023-08-30T05:35:31;100610.0;;;16.63;61.36
82657;BME280;72357;52.110;5.252;2023-08-30T05:37:07;100608.0;;;16.82;60.79
82657;BME280;72357;52.110;5.252;2023-08-30T05:38:43;100608.0;;;16.78;60.83
82657;BME280;72357;52.110;5.252;2023-08-30T05:41:55;100612.0;;;16.81;61.11
82657;BME280;72357;52.110;5.252;2023-08-30T05:43:32;100613.0;;;16.81;61.32
82657;BME280;72357;52.110;5.252;2023-08-30T05:45:09;100615.0;;;16.75;61.17
82657;BME280;72357;52.110;5.252;2023-08-30T05:48:22;100616.0;;;16.75;60.61
82657;BME280;72357;52.110;5.252;2023-08-30T05:49:58;100620.0;;;17.02;60.47
82657;BME280;72357;52.110;5.252;2023-08-30T05:51:34;100625.0;;;17.07;60.45
82657;BME280;72357;52.110;5.252;2023-08-30T05:53:10;100630.0;;;17.12;60.64
82657;BME280;72357;52.110;5.252;2023-08-30T05:56:24;100631.0;;;17.16;60.78
82657;BME280;72357;52.110;5.252;2023-08-30T05:58:00;100630.0;;;17.28;60.39
82657;BME280;72357;52.110;5.252;2023-08-30T05:59:36;100628.0;;;17.31;60.19
82657;BME280;72357;52.110;5.252;2023-08-30T06:02:50;100630.0;;;17.52;60.08
82657;BME280;72357;52.110;5.252;2023-08-30T06:04:26;100631.0;;;17.43;60.22
82657;BME280;72357;52.110;5.252;2023-08-30T06:06:02;100625.0;;;17.48;60.42
82657;BME280;72357;52.110;5.252;2023-08-30T06:09:14;100619.0;;;17.48;60.53
82657;BME280;72357;52.110;5.252;2023-08-30T06:10:50;100616.0;;;17.64;60.32
82657;BME280;72357;52.110;5.252;2023-08-30T06:12:26;100611.0;;;17.57;60.45
82657;BME280;72357;52.110;5.252;2023-08-30T06:14:02;100603.0;;;17.54;60.41
82657;BME280;72357;52.110;5.252;2023-08-30T06:17:15;100593.0;;;17.48;60.11
82657;BME280;72357;52.110;5.252;2023-08-30T06:18:51;100588.0;;;17.41;60.5
82657;BME280;72357;52.110;5.252;2023-08-30T06:20:27;100591.0;;;17.43;60.96
82657;BME280;72357;52.110;5.252;2023-08-30T06:23:41;100595.0;;;17.52;61.12
82657;BME280;72357;52.110;5.252;2023-08-30T06:25:17;100596.0;;;17.5;61.53
82657;BME280;72357;52.110;5.252;2023-08-30T06:26:53;100594.0;;;17.36;62.0
82657;BME280;72357;52.110;5.252;2023-08-30T06:30:07;100599.0;;;17.5;61.6
82657;BME280;72357;52.110;5.252;2023-08-30T06:31:43;100600.0;;;17.52;61.8
82657;BME280;72357;52.110;5.252;2023-08-30T06:33:19;100599.0;;;17.43;62.28
82657;BME280;72357;52.110;5.252;2023-08-30T06:34:56;100594.0;;;17.41;62.65
82657;BME280;72357;52.110;5.252;2023-08-30T06:38:08;100588.0;;;17.41;62.82
82657;BME280;72357;52.110;5.252;2023-08-30T06:39:44;100586.0;;;17.3;63.34
82657;BME280;72357;52.110;5.252;2023-08-30T06:41:20;100587.0;;;17.43;62.97
82657;BME280;72357;52.110;5.252;2023-08-30T06:44:32;100589.0;;;17.37;63.64
82657;BME280;72357;52.110;5.252;2023-08-30T06:46:08;100585.0;;;17.34;63.87
82657;BME280;72357;52.110;5.252;2023-08-30T06:47:45;100578.0;;;17.32;63.68
82657;BME280;72357;52.110;5.252;2023-08-30T06:50:57;100581.0;;;17.46;63.63
82657;BME280;72357;52.110;5.252;2023-08-30T06:52:34;100577.0;;;17.46;63.9
82657;BME280;72357;52.110;5.252;2023-08-30T06:54:10;100575.0;;;17.48;63.98
82657;BME280;72357;52.110;5.252;2023-08-30T06:57:33;100574.0;;;17.46;64.1
82657;BME280;72357;52.110;5.252;2023-08-30T06:59:09;100574.0;;;17.53;63.92
82657;BME280;72357;52.110;5.252;2023-08-30T07:00:45;100570.0;;;17.59;63.77
82657;BME280;72357;52.110;5.252;2023-08-30T07:02:21;100572.0;;;17.53;64.1
82657;BME280;72357;52.110;5.252;2023-08-30T07:05:33;100569.0;;;17.63;64.09
82657;BME280;72357;52.110;5.252;2023-08-30T07:07:11;100571.0;;;17.57;64.37
82657;BME280;72357;52.110;5.252;2023-08-30T07:08:47;100567.0;;;17.7;64.02
82657;BME280;72357;52.110;5.252;2023-08-30T07:12:00;100563.0;;;17.86;63.63
82657;BME280;72357;52.110;5.252;2023-08-30T07:13:36;100563.0;;;17.91;63.56
82657;BME280;72357;52.110;5.252;2023-08-30T07:15:13;100562.0;;;17.86;63.57
82657;BME280;72357;52.110;5.252;2023-08-30T07:16:50;100563.0;;;17.77;63.97
82657;BME280;72357;52.110;5.252;2023-08-30T07:20:03;100561.0;;;17.82;64.02
82657;BME280;72357;52.110;5.252;2023-08-30T07:21:39;100553.0;;;18.0;63.48
82657;BME280;72357;52.110;5.252;2023-08-30T07:23:16;100550.0;;;17.86;64.05
82657;BME280;72357;52.110;5.252;2023-08-30T07:26:28;100548.0;;;17.95;63.88
82657;BME280;72357;52.110;5.252;2023-08-30T07:28:04;100547.0;;;17.93;64.02
82657;BME280;72357;52.110;5.252;2023-08-30T07:29:41;100547.0;;;17.77;64.42
82657;BME280;72357;52.110;5.252;2023-08-30T07:32:54;100539.0;;;17.88;64.47
82657;BME280;72357;52.110;5.252;2023-08-30T07:34:29;100535.0;;;17.89;64.48
82657;BME280;72357;52.110;5.252;2023-08-30T07:36:06;100532.0;;;17.8;64.67
82657;BME280;72357;52.110;5.252;2023-08-30T07:37:42;100532.0;;;17.79;64.94
82657;BME280;72357;52.110;5.252;2023-08-30T07:40:54;100530.0;;;18.09;64.28
82657;BME280;72357;52.110;5.252;2023-08-30T07:42:30;100522.0;;;18.03;64.66
82657;BME280;72357;52.110;5.252;2023-08-30T07:44:06;100518.0;;;18.11;64.48
82657;BME280;72357;52.110;5.252;2023-08-30T07:47:18;100515.0;;;18.02;64.78
82657;BME280;72357;52.110;5.252;2023-08-30T07:48:54;100506.0;;;17.96;65.08
82657;BME280;72357;52.110;5.252;2023-08-30T07:50:31;100506.0;;;17.68;65.98
82657;BME280;72357;52.110;5.252;2023-08-30T07:53:43;100506.0;;;17.71;66.03
82657;BME280;72357;52.110;5.252;2023-08-30T07:55:19;100500.0;;;17.52;66.63
82657;BME280;72357;52.110;5.252;2023-08-30T07:56:55;100497.0;;;17.56;66.58
82657;BME280;72357;52.110;5.252;2023-08-30T08:00:08;100498.0;;;17.86;65.97
82657;BME280;72357;52.110;5.252;2023-08-30T08:01:45;100494.0;;;17.43;67.19
82657;BME280;72357;52.110;5.252;2023-08-30T08:03:21;100488.0;;;17.73;66.52
82657;BME280;72357;52.110;5.252;2023-08-30T08:04:58;100477.0;;;17.61;66.8
82657;BME280;72357;52.110;5.252;2023-08-30T08:08:10;100477.0;;;17.72;66.87
82657;BME280;72357;52.110;5.252;2023-08-30T08:09:46;100476.0;;;17.81;66.95
82657;BME280;72357;52.110;5.252;2023-08-30T08:11:22;100482.0;;;17.63;67.19
82657;BME280;72357;52.110;5.252;2023-08-30T08:14:34;100490.0;;;17.78;67.03
82657;BME280;72357;52.110;5.252;2023-08-30T08:16:11;100484.0;;;18.11;65.98
82657;BME280;72357;52.110;5.252;2023-08-30T08:17:47;100481.0;;;17.95;66.42
82657;BME280;72357;52.110;5.252;2023-08-30T08:21:00;100482.0;;;18.02;66.23
82657;BME280;72357;52.110;5.252;2023-08-30T08:22:37;100484.0;;;18.23;65.74
82657;BME280;72357;52.110;5.252;2023-08-30T08:24:13;100481.0;;;18.2;66.05
82657;BME280;72357;52.110;5.252;2023-08-30T08:25:49;100481.0;;;18.48;65.19
82657;BME280;72357;52.110;5.252;2023-08-30T08:29:01;100480.0;;;18.36;65.45
82657;BME280;72357;52.110;5.252;2023-08-30T08:30:37;100482.0;;;18.36;65.37
82657;BME280;72357;52.110;5.252;2023-08-30T08:32:14;100486.0;;;18.13;66.02
82657;BME280;72357;52.110;5.252;2023-08-30T08:35:40;100481.0;;;18.25;65.77
82657;BME280;72357;52.110;5.252;2023-08-30T08:37:16;100480.0;;;18.3;65.52
82657;BME280;72357;52.110;5.252;2023-08-30T08:38:52;100478.0;;;18.48;65.33
82657;BME280;72357;52.110;5.252;2023-08-30T08:40:28;100481.0;;;18.56;65.16
82657;BME280;72357;52.110;5.252;2023-08-30T08:43:42;100478.0;;;18.48;65.45
82657;BME280;72357;52.110;5.252;2023-08-30T08:45:18;100477.0;;;18.61;65.09
82657;BME280;72357;52.110;5.252;2023-08-30T08:46:56;100477.0;;;18.5;65.3
82657;BME280;72357;52.110;5.252;2023-08-30T08:50:15;100473.0;;;18.43;65.52
82657;BME280;72357;52.110;5.252;2023-08-30T08:51:52;100471.0;;;18.52;65.33
82657;BME280;72357;52.110;5.252;2023-08-30T08:53:28;100473.0;;;18.68;65.16
82657;BME280;72357;52.110;5.252;2023-08-30T08:55:05;100471.0;;;18.64;65.16
82657;BME280;72357;52.110;5.252;2023-08-30T08:58:19;100474.0;;;18.63;65.19
82657;BME280;72357;52.110;5.252;2023-08-30T08:59:55;100468.0;;;18.54;65.47
82657;BME280;72357;52.110;5.252;2023-08-30T09:01:33;100467.0;;;18.68;65.28
82657;BME280;72357;52.110;5.252;2023-08-30T09:04:47;100460.0;;;18.96;64.66
82657;BME280;72357;52.110;5.252;2023-08-30T09:06:23;100457.0;;;18.78;65.1
82657;BME280;72357;52.110;5.252;2023-08-30T09:08:02;100461.0;;;18.91;64.97
82657;BME280;72357;52.110;5.252;2023-08-30T09:11:14;100457.0;;;19.0;64.83
82657;BME280;72357;52.110;5.252;2023-08-30T09:12:50;100458.0;;;19.13;64.5
82657;BME280;72357;52.110;5.252;2023-08-30T09:14:26;100464.0;;;19.12;64.41
82657;BME280;72357;52.110;5.252;2023-08-30T09:16:03;100456.0;;;19.14;64.59
82657;BME280;72357;52.110;5.252;2023-08-30T09:19:23;100462.0;;;19.34;64.25
82657;BME280;72357;52.110;5.252;2023-08-30T09:21:05;100456.0;;;19.43;63.91
82657;BME280;72357;52.110;5.252;2023-08-30T09:22:42;100455.0;;;19.36;64.31
82657;BME280;72357;52.110;5.252;2023-08-30T09:25:55;100450.0;;;19.41;64.17
82657;BME280;72357;52.110;5.252;2023-08-30T09:27:32;100455.0;;;19.46;64.1
82657;BME280;72357;52.110;5.252;2023-08-30T09:29:09;100452.0;;;19.28;64.67
82657;BME280;72357;52.110;5.252;2023-08-30T09:30:49;100449.0;;;19.61;64.14
82657;BME280;72357;52.110;5.252;2023-08-30T09:34:00;100444.0;;;19.59;64.13
82657;BME280;72357;52.110;5.252;2023-08-30T09:35:43;100442.0;;;19.57;64.38
82657;BME280;72357;52.110;5.252;2023-08-30T09:37:21;100445.0;;;19.66;64.22
82657;BME280;72357;52.110;5.252;2023-08-30T09:40:33;100442.0;;;19.8;64.05
82657;BME280;72357;52.110;5.252;2023-08-30T09:42:09;100447.0;;;19.82;64.25
82657;BME280;72357;52.110;5.252;2023-08-30T09:43:46;100444.0;;;19.91;64.09
82657;BME280;72357;52.110;5.252;2023-08-30T09:45:22;100451.0;;;19.96;64.0
82657;BME280;72357;52.110;5.252;2023-08-30T09:48:37;100441.0;;;19.86;64.3
82657;BME280;72357;52.110;5.252;2023-08-30T09:50:17;100443.0;;;19.95;64.19
82657;BME280;72357;52.110;5.252;2023-08-30T09:51:54;100440.0;;;19.95;64.27
82657;BME280;72357;52.110;5.252;2023-08-30T09:55:14;100444.0;;;20.03;64.05
82657;BME280;72357;52.110;5.252;2023-08-30T09:56:50;100447.0;;;20.03;64.2
82657;BME280;72357;52.110;5.252;2023-08-30T09:58:27;100444.0;;;20.11;64.19
82657;BME280;72357;52.110;5.252;2023-08-30T10:00:06;100437.0;;;19.93;65.02
82657;BME280;72357;52.110;5.252;2023-08-30T10:04:58;100436.0;;;20.48;64.17
82657;BME280;72357;52.110;5.252;2023-08-30T10:06:35;100437.0;;;20.67;64.25
82657;BME280;72357;52.110;5.252;2023-08-30T10:09:51;100434.0;;;20.65;64.39
82657;BME280;72357;52.110;5.252;2023-08-30T10:11:28;100434.0;;;20.86;63.63
82657;BME280;72357;52.110;5.252;2023-08-30T10:13:05;100442.0;;;21.11;63.42
82657;BME280;72357;52.110;5.252;2023-08-30T10:14:41;100437.0;;;20.96;63.8
82657;BME280;72357;52.110;5.252;2023-08-30T10:17:58;100441.0;;;21.16;64.55
82657;BME280;72357;52.110;5.252;2023-08-30T10:19:36;100442.0;;;21.47;65.85
82657;BME280;72357;52.110;5.252;2023-08-30T10:21:15;100440.0;;;21.82;64.41
82657;BME280;72357;52.110;5.252;2023-08-30T10:24:37;100445.0;;;21.98;64.7
82657;BME280;72357;52.110;5.252;2023-08-30T10:26:16;100447.0;;;21.97;63.7
82657;BME280;72357;52.110;5.252;2023-08-30T10:27:53;100455.0;;;22.03;63.33
82657;BME280;72357;52.110;5.252;2023-08-30T10:29:33;100461.0;;;22.32;62.91
82657;BME280;72357;52.110;5.252;2023-08-30T10:32:49;100452.0;;;22.55;65.16
82657;BME280;72357;52.110;5.252;2023-08-30T10:34:31;100448.0;;;22.9;63.87
82657;BME280;72357;52.110;5.252;2023-08-30T10:36:08;100453.0;;;23.02;63.83
82657;BME280;72357;52.110;5.252;2023-08-30T10:37:53;100451.0;;;23.16;61.5
82657;BME280;72357;52.110;5.252;2023-08-30T10:41:11;100451.0;;;23.24;61.16
82657;BME280;72357;52.110;5.252;2023-08-30T10:42:58;100458.0;;;23.16;59.56
82657;BME280;72357;52.110;5.252;2023-08-30T10:44:34;100459.0;;;23.29;58.57
82657;BME280;72357;52.110;5.252;2023-08-30T10:46:10;100464.0;;;22.98;61.5
82657;BME280;72357;52.110;5.252;2023-08-30T10:49:39;100464.0;;;23.15;63.1
82657;BME280;72357;52.110;5.252;2023-08-30T10:51:20;100462.0;;;23.43;61.57
82657;BME280;72357;52.110;5.252;2023-08-30T10:52:57;100474.0;;;23.17;57.37
82657;BME280;72357;52.110;5.252;2023-08-30T10:54:37;100466.0;;;22.91;57.98
82657;BME280;72357;52.110;5.252;2023-08-30T10:57:58;100467.0;;;22.8;59.25
82657;BME280;72357;52.110;5.252;2023-08-30T10:59:35;100471.0;;;22.39;57.66
82657;BME280;72357;52.110;5.252;2023-08-30T11:01:12;100468.0;;;22.27;59.34
82657;BME280;72357;52.110;5.252;2023-08-30T11:02:50;100480.0;;;22.26;58.54
82657;BME280;72357;52.110;5.252;2023-08-30T11:06:03;100482.0;;;22.16;58.18
82657;BME280;72357;52.110;5.252;2023-08-30T11:07:39;100482.0;;;21.79;60.49
82657;BME280;72357;52.110;5.252;2023-08-30T11:09:16;100485.0;;;22.02;59.77
82657;BME280;72357;52.110;5.252;2023-08-30T11:12:40;100488.0;;;22.1;61.54